Time;durP1;ratioP1;P1;durP2;ratioP2;P2;SDS_P1;SDS_P2;PMS_P1;PMS_P2;Temp;Humidity;BMP_temperature;BMP_pressure;BME280_temperature;BME280_humidity;BME280_pressure;Samples;Min_cycle;Max_cycle;Signal;HPM_P1;HPM_P2
2023/09/28 00:09:04;;;;;;;12.75;10.32;;;18.00;99.30;;;;;;5112581;27;20559;-77
2023/09/28 00:12:04;;;;;;;12.40;11.02;;;18.00;99.20;;;;;;5083114;27;20044;-79
2023/09/28 00:14:52;;;;;;;12.57;10.02;;;18.00;99.20;;;;;;5114308;27;20570;-75
2023/09/28 00:17:54;;;;;;;10.93;9.80;;;18.00;99.30;;;;;;5083441;27;20145;-75
2023/09/28 00:20:46;;;;;;;13.32;9.55;;;18.00;99.20;;;;;;5075178;28;20588;-76
2023/09/28 00:23:56;;;;;;;10.32;8.98;;;17.90;99.20;;;;;;5058704;28;20060;-76
2023/09/28 00:26:57;;;;;;;13.02;8.90;;;18.00;99.60;;;;;;5061802;28;20052;-76
2023/09/28 00:30:02;;;;;;;11.27;8.40;;;17.90;99.30;;;;;;5059891;28;20142;-75
2023/09/28 00:33:07;;;;;;;11.75;8.40;;;17.90;99.40;;;;;;5049690;28;20191;-75
2023/09/28 00:36:10;;;;;;;10.60;7.60;;;17.80;99.40;;;;;;5072325;28;20044;-76
2023/09/28 00:39:05;;;;;;;10.25;8.23;;;17.90;99.40;;;;;;5059777;28;20135;-77
2023/09/28 00:42:27;;;;;;;10.57;8.52;;;17.90;99.30;;;;;;5052377;28;20146;-76
2023/09/28 00:45:34;;;;;;;8.07;6.90;;;17.90;99.20;;;;;;5072809;28;20153;-77
2023/09/28 00:48:17;;;;;;;;;;;17.90;99.10;;;;;;5039086;28;20591;-75
2023/09/28 00:51:09;;;;;;;9.15;7.30;;;17.90;99.20;;;;;;5062938;27;19927;-76
2023/09/28 01:04:08;;;;;;;9.25;7.65;;;17.90;99.10;;;;;;5066372;28;20048;-76
2023/09/28 01:07:15;;;;;;;8.20;7.25;;;17.90;99.10;;;;;;5035888;28;20056;-76
2023/09/28 01:10:23;;;;;;;9.27;7.25;;;17.90;99.30;;;;;;5043458;28;20097;-75
2023/09/28 01:13:31;;;;;;;9.27;7.40;;;17.90;99.40;;;;;;5052955;28;20604;-78
2023/09/28 01:16:49;;;;;;;11.98;7.57;;;17.90;99.40;;;;;;5066579;28;20446;-75
2023/09/28 01:19:41;;;;;;;11.15;6.88;;;17.90;99.50;;;;;;5036899;28;20117;-78
2023/09/28 01:22:36;;;;;;;8.73;6.57;;;17.90;99.60;;;;;;5067273;28;20055;-75
2023/09/28 01:25:21;;;;;;;9.02;6.07;;;17.90;99.70;;;;;;5064230;28;20414;-75
2023/09/28 01:28:24;;;;;;;10.00;6.90;;;17.90;99.70;;;;;;5010726;28;20044;-75
2023/09/28 01:34:33;;;;;;;9.98;6.78;;;17.90;99.80;;;;;;5049256;28;20163;-78
2023/09/28 01:37:33;;;;;;;9.23;6.07;;;17.90;99.80;;;;;;5066327;28;20064;-76
2023/09/28 01:40:23;;;;;;;8.93;6.07;;;18.00;99.90;;;;;;5052992;28;20130;-75
2023/09/28 01:43:31;;;;;;;10.15;6.03;;;17.90;99.90;;;;;;4985967;28;20371;-77
2023/09/28 01:46:32;;;;;;;8.30;5.85;;;18.00;99.90;;;;;;4991336;28;20057;-75
2023/09/28 01:49:24;;;;;;;8.18;5.57;;;18.00;99.90;;;;;;5010392;28;20053;-75
2023/09/28 01:52:16;;;;;;;7.53;6.00;;;18.00;99.90;;;;;;5037969;28;20054;-79
2023/09/28 01:55:03;;;;;;;8.20;5.13;;;18.00;99.90;;;;;;5090423;27;20047;-75
2023/09/28 01:58:09;;;;;;;8.70;5.13;;;18.00;99.90;;;;;;5087031;27;20043;-76
2023/09/28 02:01:01;;;;;;;9.52;5.00;;;18.00;99.90;;;;;;5091073;27;20047;-76
2023/09/28 02:04:06;;;;;;;7.88;5.28;;;18.00;99.90;;;;;;5108663;27;20130;-76
2023/09/28 02:06:58;;;;;;;9.60;5.32;;;18.00;99.90;;;;;;5078441;27;20048;-76
2023/09/28 02:10:09;;;;;;;8.95;4.90;;;18.00;99.90;;;;;;5090905;27;20047;-75
2023/09/28 02:20:34;;;;;;;7.80;5.18;;;18.00;99.90;;;;;;5106334;28;20111;-76
2023/09/28 02:27:17;;;;;;;11.00;5.50;;;18.00;99.90;;;;;;5013940;28;20041;-77
2023/09/28 02:30:15;;;;;;;8.25;5.30;;;18.00;99.90;;;;;;5000216;28;20427;-74
2023/09/28 02:33:13;;;;;;;7.82;4.85;;;18.00;99.90;;;;;;5104192;27;20047;-75
2023/09/28 02:36:04;;;;;;;7.78;5.15;;;18.00;99.90;;;;;;5104814;27;20399;-74
2023/09/28 02:39:07;;;;;;;7.78;5.22;;;18.00;99.90;;;;;;5093889;28;20055;-75
2023/09/28 02:42:11;;;;;;;10.07;6.13;;;17.90;99.90;;;;;;5088157;27;21831;-77
2023/09/28 02:45:02;;;;;;;10.07;5.65;;;17.90;99.90;;;;;;5092500;27;20052;-77
2023/09/28 02:47:57;;;;;;;9.02;5.78;;;17.80;99.90;;;;;;5047920;27;20051;-74
2023/09/28 02:50:57;;;;;;;7.93;5.43;;;17.90;99.90;;;;;;5093719;27;20214;-74
2023/09/28 02:54:07;;;;;;;11.15;6.03;;;17.80;99.90;;;;;;5096618;27;20042;-76
2023/09/28 02:57:08;;;;;;;9.05;6.10;;;17.80;99.90;;;;;;5101768;27;20762;-74
2023/09/28 03:03:44;;;;;;;13.60;6.60;;;17.70;99.90;;;;;;5093815;27;20060;-76
2023/09/28 03:06:29;;;;;;;15.10;7.55;;;17.70;99.90;;;;;;5093643;27;20102;-75
2023/09/28 03:09:27;;;;;;;10.55;6.45;;;17.70;99.90;;;;;;5084458;27;20075;-75
2023/09/28 03:12:27;;;;;;;11.23;6.15;;;17.70;99.90;;;;;;5094023;27;20055;-74
2023/09/28 03:15:32;;;;;;;11.35;5.50;;;17.70;99.90;;;;;;5117404;27;20041;-75
2023/09/28 03:18:29;;;;;;;12.35;5.68;;;17.70;99.90;;;;;;5081897;27;20048;-74
2023/09/28 03:24:46;;;;;;;9.73;4.80;;;17.60;99.90;;;;;;5079206;27;20111;-76
2023/09/28 03:31:39;;;;;;;9.98;4.10;;;17.60;99.90;;;;;;5114867;27;20043;-74
2023/09/28 03:35:28;;;;;;;8.60;3.47;;;17.60;99.90;;;;;;5049946;28;20060;-75
2023/09/28 03:38:28;;;;;;;6.75;2.67;;;17.60;99.90;;;;;;5058827;28;20866;-74
2023/09/28 03:41:49;;;;;;;9.38;2.88;;;18.20;99.90;;;;;;5058711;28;20517;-77
2023/09/28 03:44:45;;;;;;;9.80;2.28;;;17.70;99.90;;;;;;5041805;28;20046;-75
2023/09/28 03:48:09;;;;;;;9.65;2.65;;;17.70;99.60;;;;;;5059070;28;20059;-75
2023/09/28 03:50:59;;;;;;;13.57;3.00;;;17.80;99.00;;;;;;5042572;28;20127;-78
2023/09/28 03:54:02;;;;;;;14.40;3.60;;;17.90;98.90;;;;;;5023442;28;20097;-75
2023/09/28 03:56:55;;;;;;;16.05;3.22;;;17.90;98.80;;;;;;5043651;28;20048;-74
2023/09/28 04:00:01;;;;;;;17.92;3.80;;;17.90;98.60;;;;;;5039688;28;20079;-79
2023/09/28 04:02:54;;;;;;;18.67;3.63;;;17.90;98.40;;;;;;5052288;28;20066;-77
2023/09/28 04:06:00;;;;;;;20.83;3.97;;;17.90;98.20;;;;;;5091862;27;20058;-75
2023/09/28 04:09:00;;;;;;;18.08;3.70;;;17.90;98.10;;;;;;5082012;27;20039;-79
2023/09/28 04:11:52;;;;;;;24.30;3.30;;;17.90;97.70;;;;;;5094124;27;20565;-76
2023/09/28 04:14:57;;;;;;;22.83;4.35;;;17.80;97.80;;;;;;5112068;27;20498;-75
2023/09/28 04:18:10;;;;;;;18.98;3.80;;;17.80;98.00;;;;;;5076661;27;20047;-76
2023/09/28 04:21:06;;;;;;;19.17;3.90;;;17.70;98.00;;;;;;5082998;27;21363;-76
2023/09/28 04:24:18;;;;;;;19.23;3.85;;;17.70;98.10;;;;;;5093803;27;20052;-76
2023/09/28 04:27:17;;;;;;;18.48;3.47;;;17.70;98.20;;;;;;5113187;27;20039;-76
2023/09/28 04:30:08;;;;;;;15.38;3.63;;;17.60;98.30;;;;;;5111685;27;20406;-76
2023/09/28 04:33:14;;;;;;;18.92;3.63;;;17.60;98.40;;;;;;5114736;27;20062;-75
2023/09/28 04:36:18;;;;;;;17.92;3.85;;;17.60;98.50;;;;;;5113969;27;20555;-77
2023/09/28 04:39:12;;;;;;;24.23;4.30;;;17.50;98.80;;;;;;5095242;27;20059;-77
2023/09/28 04:42:06;;;;;;;18.40;4.00;;;17.50;98.90;;;;;;5094926;27;20043;-76
2023/09/28 04:44:49;;;;;;;22.65;4.65;;;17.50;99.10;;;;;;5113967;27;20039;-76
2023/09/28 04:48:18;;;;;;;23.48;4.22;;;16.70;99.00;;;;;;5112676;27;20118;-76
2023/09/28 04:51:22;;;;;;;21.88;4.28;;;17.40;99.40;;;;;;5004315;28;20064;-75
2023/09/28 04:54:25;;;;;;;24.77;4.13;;;17.40;99.50;;;;;;5092058;27;20062;-74
2023/09/28 04:57:57;;;;;;;18.98;3.80;;;17.40;99.60;;;;;;5110669;27;20150;-75
2023/09/28 05:01:06;;;;;;;22.33;4.10;;;17.30;99.70;;;;;;5092141;27;20051;-76
2023/09/28 05:04:00;;;;;;;22.17;3.85;;;17.30;99.90;;;;;;5040329;28;20049;-75
2023/09/28 05:06:59;;;;;;;20.52;3.50;;;17.30;99.80;;;;;;5018702;28;20045;-76
2023/09/28 05:09:55;;;;;;;18.40;3.35;;;17.30;99.70;;;;;;5023018;28;20083;-75
2023/09/28 05:12:47;;;;;;;19.15;4.32;;;17.40;99.60;;;;;;5022413;28;20229;-78
2023/09/28 05:15:49;;;;;;;17.42;3.50;;;17.30;99.50;;;;;;5036144;28;20045;-78
2023/09/28 05:18:59;;;;;;;18.27;3.60;;;17.40;99.40;;;;;;4992091;28;20045;-78
2023/09/28 05:24:34;;;;;;;19.30;4.03;;;17.40;99.20;;;;;;5031879;28;20469;-77
2023/09/28 05:27:42;;;;;;;18.65;4.63;;;17.40;99.00;;;;;;5007100;28;20049;-73
2023/09/28 05:30:55;;;;;;;20.77;3.95;;;17.20;98.70;;;;;;4999533;28;20053;-72
2023/09/28 05:34:01;;;;;;;23.55;4.38;;;17.40;98.80;;;;;;5051466;28;20059;-76
2023/09/28 05:37:15;;;;;;;20.60;4.60;;;17.50;98.90;;;;;;5037752;28;20055;-73
2023/09/28 05:40:44;;;;;;;18.25;5.07;;;17.40;98.90;;;;;;5038017;28;20215;-75
2023/09/28 05:44:29;;;;;;;24.58;4.53;;;17.40;98.90;;;;;;5050499;28;20048;-73
2023/09/28 05:47:16;;;;;;;24.38;4.18;;;17.30;99.00;;;;;;5058120;28;21446;-75
2023/09/28 05:57:22;;;;;;;26.08;4.43;;;17.40;99.20;;;;;;5054207;28;20084;-76
2023/09/28 06:00:29;;;;;;;20.40;3.78;;;17.30;99.30;;;;;;4926277;28;20089;-75
2023/09/28 06:03:20;;;;;;;22.10;4.15;;;17.30;99.50;;;;;;4952593;28;20050;-74
2023/09/28 06:06:29;;;;;;;19.35;3.53;;;17.40;99.60;;;;;;4956261;28;20054;-74
2023/09/28 06:09:44;;;;;;;20.20;3.88;;;17.40;99.30;;;;;;5004207;28;20216;-74
2023/09/28 06:12:28;;;;;;;23.70;4.25;;;17.40;99.00;;;;;;5054516;27;20683;-73
2023/09/28 06:15:14;;;;;;;20.98;4.00;;;17.40;98.60;;;;;;5094854;27;20344;-75
2023/09/28 06:18:25;;;;;;;21.13;3.90;;;17.50;98.10;;;;;;5093684;28;20473;-71
2023/09/28 06:21:17;;;;;;;22.85;3.95;;;17.50;98.00;;;;;;5079832;28;20044;-76
2023/09/28 06:24:43;;;;;;;19.75;3.08;;;17.50;97.50;;;;;;5094233;28;20090;-77
2023/09/28 06:27:56;;;;;;;18.85;3.55;;;17.60;97.50;;;;;;5092845;28;20079;-73
2023/09/28 06:31:04;;;;;;;21.45;3.78;;;17.60;97.60;;;;;;5076254;28;20048;-74
2023/09/28 06:37:29;;;;;;;23.30;4.00;;;17.60;97.80;;;;;;5072259;28;20152;-77
2023/09/28 06:40:15;;;;;;;21.75;3.67;;;17.60;97.80;;;;;;5068947;28;20058;-74
2023/09/28 06:43:31;;;;;;;22.48;3.88;;;17.60;97.80;;;;;;5094192;28;20364;-75
2023/09/28 06:46:38;;;;;;;22.67;4.22;;;17.60;97.80;;;;;;5078241;28;20051;-74
2023/09/28 06:49:58;;;;;;;25.33;4.40;;;17.60;97.70;;;;;;5082800;27;20538;-74
2023/09/28 06:52:51;;;;;;;21.52;4.32;;;17.70;97.70;;;;;;5079051;27;20094;-74
2023/09/28 06:55:55;;;;;;;21.33;4.05;;;17.70;97.70;;;;;;5110004;27;20057;-75
2023/09/28 06:59:24;;;;;;;20.42;4.00;;;17.70;97.60;;;;;;5089413;27;20444;-77
2023/09/28 07:02:34;;;;;;;24.80;4.50;;;17.70;97.60;;;;;;5095315;27;20101;-75
2023/09/28 07:05:47;;;;;;;21.38;3.75;;;17.80;97.60;;;;;;5092856;27;20935;-76
2023/09/28 07:08:58;;;;;;;20.35;3.80;;;17.80;97.40;;;;;;5031988;28;20036;-75
2023/09/28 07:11:50;;;;;;;17.42;3.63;;;17.80;97.50;;;;;;5034059;28;20110;-75
2023/09/28 07:14:42;;;;;;;18.67;4.20;;;17.90;97.50;;;;;;5016249;28;20516;-75
2023/09/28 07:17:34;;;;;;;23.60;4.03;;;17.90;97.60;;;;;;5045999;28;21030;-78
2023/09/28 07:20:26;;;;;;;22.58;4.00;;;17.90;97.60;;;;;;4989000;28;20064;-74
2023/09/28 07:23:31;;;;;;;19.58;3.90;;;17.90;97.50;;;;;;5020938;28;20044;-75
2023/09/28 07:26:36;;;;;;;14.80;3.88;;;17.90;97.50;;;;;;5035454;28;20599;-74
2023/09/28 07:29:27;;;;;;;23.50;4.28;;;17.90;97.50;;;;;;5047185;28;20203;-74
2023/09/28 07:32:39;;;;;;;19.23;3.80;;;18.00;97.50;;;;;;5045459;28;21852;-80
2023/09/28 07:35:48;;;;;;;21.08;3.85;;;18.00;97.50;;;;;;5072236;27;20401;-74
2023/09/28 07:39:01;;;;;;;19.05;3.47;;;18.10;97.50;;;;;;5094790;27;20134;-78
2023/09/28 07:41:40;;;;;;;20.13;3.97;;;18.10;97.50;;;;;;5106646;27;20200;-77
2023/09/28 07:45:22;;;;;;;17.05;4.13;;;18.00;97.60;;;;;;5110615;27;20051;-76
2023/09/28 07:48:27;;;;;;;19.45;3.70;;;18.10;97.60;;;;;;5107143;27;20516;-75
2023/09/28 07:51:42;;;;;;;23.85;4.05;;;18.10;97.60;;;;;;5079337;27;20051;-76
2023/09/28 07:54:55;;;;;;;23.17;4.03;;;18.00;97.80;;;;;;5091138;27;20754;-75
2023/09/28 07:58:00;;;;;;;15.88;3.00;;;18.00;98.00;;;;;;5090578;27;20099;-75
2023/09/28 08:01:01;;;;;;;23.05;4.30;;;18.00;98.20;;;;;;5089635;27;20050;-75
2023/09/28 08:04:14;;;;;;;17.70;3.70;;;18.00;98.30;;;;;;5090600;27;20051;-75
2023/09/28 08:07:20;;;;;;;18.90;4.35;;;18.00;98.20;;;;;;5089450;27;20047;-74
2023/09/28 08:10:26;;;;;;;22.40;5.25;;;18.20;98.30;;;;;;5092197;27;20161;-73
2023/09/28 08:13:52;;;;;;;18.95;4.18;;;18.00;98.30;;;;;;5093849;27;20076;-72
2023/09/28 08:16:56;;;;;;;19.17;4.03;;;18.00;97.90;;;;;;5091594;27;20043;-75
2023/09/28 08:19:57;;;;;;;19.90;3.53;;;18.10;97.70;;;;;;5097789;27;20073;-74
2023/09/28 08:26:11;;;;;;;20.90;4.30;;;18.10;97.70;;;;;;5111316;27;20454;-74
2023/09/28 08:29:22;;;;;;;22.48;4.13;;;17.70;97.30;;;;;;5076006;27;20054;-74
2023/09/28 08:36:22;;;;;;;23.30;4.22;;;18.30;97.40;;;;;;5092142;27;20379;-76
2023/09/28 08:39:45;;;;;;;20.52;3.85;;;18.30;97.30;;;;;;5088754;27;20074;-75
2023/09/28 08:42:35;;;;;;;;;;;18.30;97.10;;;;;;5086456;27;20059;-74
2023/09/28 08:49:14;;;;;;;20.60;3.75;;;18.30;97.10;;;;;;5107180;27;20040;-73
2023/09/28 08:51:51;;;;;;;21.00;4.32;;;18.30;97.00;;;;;;5091568;27;20553;-74
2023/09/28 08:55:19;;;;;;;18.80;3.60;;;18.40;97.10;;;;;;5075863;27;20139;-74
2023/09/28 08:58:20;;;;;;;17.13;3.85;;;18.40;97.10;;;;;;5088114;27;20055;-76
2023/09/28 09:01:25;;;;;;;16.92;3.33;;;18.40;97.10;;;;;;5091079;27;20047;-74
2023/09/28 09:04:22;;;;;;;17.88;4.40;;;18.50;97.00;;;;;;5086908;27;20047;-75
2023/09/28 09:07:32;;;;;;;20.15;3.92;;;18.50;96.90;;;;;;5086915;27;20070;-75
2023/09/28 09:10:23;;;;;;;19.95;4.20;;;18.50;97.00;;;;;;5081889;27;20096;-76
2023/09/28 09:13:16;;;;;;;14.52;3.20;;;18.50;96.80;;;;;;5108224;27;20082;-77
2023/09/28 09:16:28;;;;;;;18.52;3.90;;;18.50;96.60;;;;;;5077399;27;20058;-77
2023/09/28 09:19:40;;;;;;;18.20;3.55;;;18.50;96.50;;;;;;5013734;28;20298;-78
2023/09/28 09:22:31;;;;;;;18.45;3.72;;;18.70;96.50;;;;;;4998361;28;20163;-77
2023/09/28 09:25:16;;;;;;;15.13;3.47;;;18.70;96.10;;;;;;5014612;28;20057;-78
2023/09/28 09:32:24;;;;;;;15.85;3.83;;;18.80;95.10;;;;;;4992976;28;20488;-78
2023/09/28 09:35:12;;;;;;;14.48;3.22;;;18.80;95.00;;;;;;4978177;28;20087;-76
2023/09/28 09:38:21;;;;;;;14.50;2.75;;;18.80;94.80;;;;;;4977149;28;20140;-78
2023/09/28 09:41:33;;;;;;;19.52;3.67;;;18.90;94.40;;;;;;4994836;28;20038;-76
2023/09/28 09:44:30;;;;;;;16.38;3.30;;;18.90;94.60;;;;;;5014382;28;20499;-77
2023/09/28 09:47:16;;;;;;;;;;;18.90;94.40;;;;;;5014618;28;20137;-75
2023/09/28 09:50:18;;;;;;;18.77;3.47;;;18.80;93.80;;;;;;5013734;28;19974;-74
2023/09/28 09:53:07;;;;;;;14.98;3.13;;;18.90;94.50;;;;;;4979359;28;20061;-75
2023/09/28 09:55:48;;;;;;;12.85;3.17;;;18.90;94.40;;;;;;5063503;27;20199;-75
2023/09/28 09:59:03;;;;;;;16.13;3.08;;;19.00;94.30;;;;;;5075368;27;20058;-76
2023/09/28 10:02:32;;;;;;;24.73;3.05;;;19.10;93.70;;;;;;5089141;27;20055;-76
2023/09/28 10:05:21;;;;;;;16.33;3.22;;;19.90;93.50;;;;;;5109082;27;20060;-79
2023/09/28 10:08:08;;;;;;;12.23;3.22;;;19.10;93.00;;;;;;5093208;27;20059;-77
2023/09/28 10:10:46;;;;;;;14.98;3.25;;;19.10;92.30;;;;;;5104722;27;20063;-75
2023/09/28 10:14:10;;;;;;;12.45;2.78;;;19.10;93.10;;;;;;5096394;27;20124;-78
2023/09/28 10:16:48;;;;;;;15.10;2.55;;;19.10;91.90;;;;;;5110426;27;20050;-79
2023/09/28 10:19:19;;;;;;;14.63;3.25;;;19.10;91.70;;;;;;5092339;27;20214;-81
2023/09/28 10:21:47;;;;;;;13.23;3.20;;;19.10;91.70;;;;;;5092225;27;20062;-81
2023/09/28 10:24:15;;;;;;;12.38;2.85;;;19.10;91.50;;;;;;5079295;27;20114;-81
2023/09/28 10:26:51;;;;;;;15.35;3.17;;;19.00;91.20;;;;;;5094473;27;20052;-81
2023/09/28 10:29:44;;;;;;;12.90;2.90;;;19.10;90.80;;;;;;5099394;27;20134;-81
2023/09/28 10:32:26;;;;;;;12.82;2.90;;;19.10;90.40;;;;;;5093711;27;20046;-80
2023/09/28 10:35:22;;;;;;;14.88;3.22;;;19.10;90.30;;;;;;5095246;27;20138;-78
2023/09/28 10:38:15;;;;;;;15.68;2.60;;;19.10;89.60;;;;;;5112456;27;20056;-77
2023/09/28 10:41:39;;;;;;;15.15;2.88;;;19.10;89.60;;;;;;5084320;27;20058;-72
2023/09/28 10:45:06;;;;;;;13.40;2.60;;;19.10;90.10;;;;;;4981021;28;20566;-73
2023/09/28 10:48:51;;;;;;;11.13;2.33;;;19.10;89.50;;;;;;4937330;28;20049;-73
2023/09/28 10:52:22;;;;;;;11.73;2.38;;;19.10;86.10;;;;;;4954379;28;20328;-74
2023/09/28 10:55:36;;;;;;;12.60;2.65;;;19.20;86.00;;;;;;4997081;28;20045;-73
2023/09/28 10:58:35;;;;;;;18.63;2.80;;;19.20;85.80;;;;;;5017408;28;20128;-73
2023/09/28 11:01:36;;;;;;;15.77;2.80;;;19.30;84.90;;;;;;5032195;28;20127;-72
2023/09/28 11:04:39;;;;;;;12.27;2.90;;;19.40;85.50;;;;;;5016297;28;20731;-71
2023/09/28 11:07:45;;;;;;;13.93;2.47;;;19.40;85.60;;;;;;5031027;28;20429;-75
2023/09/28 11:10:45;;;;;;;14.20;2.72;;;19.40;85.40;;;;;;5003917;28;20191;-74
2023/09/28 11:13:52;;;;;;;21.58;3.38;;;19.40;84.40;;;;;;5002597;28;20049;-72
2023/09/28 11:16:59;;;;;;;15.05;3.22;;;19.30;83.40;;;;;;5002623;28;20041;-75
2023/09/28 11:20:03;;;;;;;12.70;3.03;;;19.30;83.80;;;;;;5086955;27;20597;-74
2023/09/28 11:22:59;;;;;;;14.50;3.08;;;19.40;84.80;;;;;;5091434;27;20058;-72
2023/09/28 11:25:41;;;;;;;15.00;3.08;;;19.40;83.80;;;;;;5085843;27;20397;-80
2023/09/28 11:28:07;;;;;;;15.50;3.25;;;19.40;85.10;;;;;;5083381;27;20047;-81
2023/09/28 11:30:36;;;;;;;14.43;3.22;;;19.50;85.10;;;;;;5067624;27;21059;-79
2023/09/28 11:37:02;;;;;;;14.13;2.70;;;19.70;84.00;;;;;;5110966;27;20077;-81
2023/09/28 11:40:00;;;;;;;13.27;2.75;;;19.90;83.30;;;;;;5092125;27;20073;-79
2023/09/28 11:42:49;;;;;;;10.00;2.83;;;19.90;79.40;;;;;;5106594;27;20406;-74
2023/09/28 11:46:28;;;;;;;13.45;2.85;;;19.90;80.10;;;;;;5090827;27;20059;-74
2023/09/28 11:49:56;;;;;;;9.50;3.10;;;19.90;79.80;;;;;;5090917;27;20098;-73
2023/09/28 11:53:01;;;;;;;9.93;2.20;;;19.80;77.90;;;;;;5092258;27;20109;-73
2023/09/28 11:59:21;;;;;;;8.43;2.25;;;19.80;78.70;;;;;;5093831;27;20051;-73
2023/09/28 12:02:44;;;;;;;13.02;2.80;;;19.90;79.20;;;;;;5091283;27;20257;-73
2023/09/28 12:05:49;;;;;;;10.95;2.55;;;19.90;79.90;;;;;;5106263;27;20051;-73
2023/09/28 12:09:28;;;;;;;10.32;2.80;;;19.90;80.80;;;;;;5098938;27;20062;-73
2023/09/28 12:12:34;;;;;;;12.05;2.42;;;20.00;79.30;;;;;;5090568;27;20074;-72
2023/09/28 12:15:37;;;;;;;14.60;2.63;;;20.00;79.70;;;;;;5076623;27;20178;-73
2023/09/28 12:25:18;;;;;;;10.80;2.53;;;20.10;80.20;;;;;;5107931;27;20478;-77
2023/09/28 12:28:37;;;;;;;11.40;2.47;;;20.10;79.50;;;;;;5106310;27;20134;-71
2023/09/28 12:31:47;;;;;;;12.15;2.70;;;20.20;80.40;;;;;;5081153;27;20047;-72
2023/09/28 12:34:56;;;;;;;16.20;2.80;;;20.20;79.70;;;;;;5062567;28;20137;-71
2023/09/28 12:38:04;;;;;;;15.60;3.00;;;20.30;77.90;;;;;;5039565;28;20491;-72
2023/09/28 12:41:05;;;;;;;16.38;2.72;;;20.30;78.00;;;;;;5021217;28;20180;-72
2023/09/28 12:44:13;;;;;;;16.10;2.70;;;20.30;77.90;;;;;;5048308;28;20040;-71
2023/09/28 12:47:21;;;;;;;10.85;2.38;;;20.30;75.80;;;;;;5064274;28;20075;-73
2023/09/28 12:50:33;;;;;;;16.52;3.25;;;20.30;77.80;;;;;;5042091;28;20071;-71
2023/09/28 12:53:18;;;;;;;14.68;2.83;;;20.20;77.40;;;;;;5062795;28;20139;-71
2023/09/28 12:59:09;;;;;;;13.30;2.67;;;20.10;79.20;;;;;;5038512;28;20055;-71
2023/09/28 13:01:53;;;;;;;13.85;2.60;;;20.10;79.80;;;;;;5058809;28;20070;-74
2023/09/28 13:05:06;;;;;;;14.90;2.60;;;20.10;80.60;;;;;;5079033;27;20101;-73
2023/09/28 13:08:25;;;;;;;13.82;3.15;;;20.10;80.70;;;;;;5094536;27;20050;-72
2023/09/28 13:11:14;;;;;;;13.73;2.95;;;20.00;80.40;;;;;;5035264;28;20063;-72
2023/09/28 13:13:42;;;;;;;14.80;2.90;;;20.00;80.90;;;;;;5036205;28;20454;-72
2023/09/28 13:28:10;;;;;;;14.60;3.03;;;20.00;78.80;;;;;;4989448;28;20103;-74
2023/09/28 13:37:00;;;;;;;10.90;2.50;;;19.90;80.50;;;;;;4996450;28;20041;-71
2023/09/28 13:39:36;;;;;;;13.02;2.80;;;19.80;79.30;;;;;;5000009;28;20128;-72
2023/09/28 13:42:18;;;;;;;13.40;2.97;;;19.80;78.50;;;;;;4992786;28;20049;-74
2023/09/28 13:44:59;;;;;;;12.63;2.88;;;19.80;77.80;;;;;;5011415;28;20139;-73
2023/09/28 13:47:28;;;;;;;15.45;3.33;;;19.90;76.90;;;;;;5014803;28;20057;-72
2023/09/28 13:50:10;;;;;;;16.90;2.92;;;19.80;76.40;;;;;;4958174;28;20068;-71
2023/09/28 13:52:37;;;;;;;16.90;3.13;;;19.80;75.60;;;;;;4924848;28;20061;-75
2023/09/28 13:55:06;;;;;;;12.75;3.03;;;19.70;74.90;;;;;;4972244;28;20747;-73
2023/09/28 13:57:50;;;;;;;17.73;2.80;;;19.70;75.30;;;;;;5084178;27;1580437;-75
2023/09/28 14:00:31;;;;;;;19.02;3.35;;;19.90;70.90;;;;;;5128268;27;20299;-75
2023/09/28 14:02:58;;;;;;;15.20;3.30;;;19.90;73.40;;;;;;5130551;27;20046;-74
2023/09/28 14:05:36;;;;;;;15.18;3.20;;;19.80;74.20;;;;;;5118577;27;20088;-75
2023/09/28 14:08:16;;;;;;;12.35;2.95;;;19.80;74.80;;;;;;5113223;27;20395;-75
2023/09/28 14:11:12;;;;;;;15.47;2.87;;;19.70;71.90;;;;;;5148310;27;20102;-74
2023/09/28 14:14:23;;;;;;;11.57;2.67;;;19.70;74.10;;;;;;5125866;27;20298;-76
2023/09/28 14:17:14;;;;;;;13.77;2.88;;;19.60;73.20;;;;;;5150116;27;20057;-73
2023/09/28 14:20:10;;;;;;;11.07;2.72;;;19.50;74.40;;;;;;5118780;27;20126;-72
2023/09/28 14:25:49;;;;;;;10.35;2.50;;;19.30;75.30;;;;;;5107868;27;20060;-73
2023/09/28 14:28:40;;;;;;;9.10;2.33;;;19.30;74.90;;;;;;5130428;27;20754;-74
2023/09/28 14:31:25;;;;;;;10.93;2.33;;;19.50;74.50;;;;;;5128765;27;20115;-72
2023/09/28 14:34:19;;;;;;;9.57;2.28;;;19.60;73.80;;;;;;5112041;27;20055;-74
2023/09/28 14:36:56;;;;;;;10.65;2.03;;;19.60;69.80;;;;;;5149170;27;20050;-74
2023/09/28 14:39:28;;;;;;;10.48;2.38;;;19.60;71.10;;;;;;5113206;27;20278;-73
2023/09/28 14:42:02;;;;;;;12.50;2.63;;;19.60;69.70;;;;;;5112513;27;20655;-73
2023/09/28 14:44:32;;;;;;;8.48;2.35;;;19.50;69.50;;;;;;5114547;27;20047;-72
2023/09/28 14:47:06;;;;;;;;;;;19.20;69.90;;;;;;5083856;27;20075;-72
2023/09/28 14:49:36;;;;;;;15.38;2.78;;;19.40;68.50;;;;;;5149392;27;19927;-73
2023/09/28 14:52:18;;;;;;;6.63;1.98;;;19.40;72.20;;;;;;5068720;28;20052;-74
2023/09/28 14:54:51;;;;;;;12.18;2.70;;;19.30;72.10;;;;;;5074148;28;20044;-74
2023/09/28 14:57:17;;;;;;;11.00;2.42;;;19.30;72.20;;;;;;5068310;28;20834;-74
2023/09/28 14:59:42;;;;;;;9.70;2.28;;;19.30;71.60;;;;;;5067882;28;20055;-74
2023/09/28 15:02:11;;;;;;;9.73;2.47;;;19.30;71.30;;;;;;5070075;28;20066;-73
2023/09/28 15:04:43;;;;;;;14.98;2.75;;;19.30;70.90;;;;;;5086661;28;20125;-76
2023/09/28 15:08:03;;;;;;;10.50;2.65;;;19.30;70.90;;;;;;5062272;28;20166;-73
2023/09/28 15:10:39;;;;;;;10.63;2.72;;;19.70;70.00;;;;;;5054688;28;20101;-72
2023/09/28 15:13:16;;;;;;;10.93;2.47;;;19.30;70.50;;;;;;5059132;28;20563;-70
2023/09/28 15:15:43;;;;;;;9.80;2.50;;;19.10;70.40;;;;;;5057475;28;20059;-71
2023/09/28 15:18:52;;;;;;;10.85;2.55;;;19.30;70.50;;;;;;5073367;28;20051;-70
2023/09/28 15:24:23;;;;;;;8.30;1.83;;;19.10;72.20;;;;;;5115840;27;20047;-72
2023/09/28 15:27:21;;;;;;;11.38;2.28;;;19.10;73.40;;;;;;5136223;27;20054;-70
2023/09/28 15:30:28;;;;;;;8.88;1.77;;;19.10;74.40;;;;;;5108994;27;20051;-72
2023/09/28 15:32:59;;;;;;;10.90;2.28;;;19.00;74.50;;;;;;5100801;27;20042;-72
2023/09/28 15:35:44;;;;;;;9.55;2.53;;;19.00;75.90;;;;;;5119535;27;20050;-71
2023/09/28 15:38:23;;;;;;;10.02;2.13;;;18.90;76.30;;;;;;5116225;27;20556;-71
2023/09/28 15:41:26;;;;;;;9.73;2.08;;;19.20;77.10;;;;;;5117029;27;20107;-71
2023/09/28 15:44:09;;;;;;;13.18;2.35;;;18.50;77.60;;;;;;5105261;27;20074;-73
2023/09/28 15:47:16;;;;;;;12.25;2.50;;;18.90;78.50;;;;;;5118697;27;20728;-72
2023/09/28 15:49:42;;;;;;;;;;;18.80;78.90;;;;;;5140769;27;20043;-79
2023/09/28 15:52:54;;;;;;;8.80;2.72;;;18.70;79.20;;;;;;5121109;27;20392;-79
2023/09/28 15:55:49;;;;;;;11.85;2.33;;;18.70;80.10;;;;;;5105298;27;20078;-76
2023/09/28 15:58:33;;;;;;;11.63;2.17;;;18.70;80.80;;;;;;5117698;27;20510;-77
2023/09/28 16:01:19;;;;;;;12.90;2.60;;;18.70;81.50;;;;;;5135786;27;20043;-75
2023/09/28 16:03:52;;;;;;;11.93;2.30;;;18.70;82.00;;;;;;5136814;27;20559;-76
2023/09/28 16:06:49;;;;;;;11.73;2.10;;;18.60;82.80;;;;;;5137635;27;20057;-74
2023/09/28 16:09:41;;;;;;;12.48;2.10;;;18.60;83.40;;;;;;5122351;27;20171;-73
2023/09/28 16:12:31;;;;;;;11.45;2.60;;;18.60;84.10;;;;;;5075613;28;20133;-73
2023/09/28 16:15:39;;;;;;;9.18;2.30;;;18.60;84.70;;;;;;5062892;28;20123;-74
2023/09/28 16:18:17;;;;;;;9.23;2.20;;;18.50;85.40;;;;;;5057489;28;20125;-74
2023/09/28 16:20:52;;;;;;;12.13;2.95;;;18.60;85.70;;;;;;5072108;28;20074;-75
2023/09/28 16:23:31;;;;;;;11.20;2.25;;;18.50;86.10;;;;;;5042220;28;20047;-78
2023/09/28 16:26:04;;;;;;;12.52;2.60;;;18.50;86.20;;;;;;5046654;28;20086;-73
2023/09/28 16:28:52;;;;;;;13.50;2.53;;;18.50;86.40;;;;;;5076102;28;20825;-74
2023/09/28 16:31:26;;;;;;;11.50;2.72;;;18.50;86.80;;;;;;5027769;28;20161;-73
2023/09/28 16:33:52;;;;;;;10.48;2.50;;;18.40;87.10;;;;;;5048844;28;20063;-76
2023/09/28 16:36:27;;;;;;;9.43;2.38;;;18.40;87.60;;;;;;5077671;28;20054;-76
2023/09/28 16:39:06;;;;;;;9.48;2.42;;;18.40;88.10;;;;;;5053545;28;20057;-75
2023/09/28 16:41:49;;;;;;;10.63;2.60;;;18.40;88.70;;;;;;5047156;28;20121;-74
2023/09/28 16:44:15;;;;;;;9.18;2.10;;;18.40;89.10;;;;;;5104913;27;20395;-75
2023/09/28 16:46:58;;;;;;;12.60;3.22;;;18.40;89.40;;;;;;5110762;27;20560;-75
2023/09/28 16:49:43;;;;;;;10.63;2.33;;;18.30;89.90;;;;;;5140675;27;20095;-75
2023/09/28 16:52:15;;;;;;;9.40;2.13;;;18.30;90.20;;;;;;5120111;27;20059;-74
2023/09/28 16:55:16;;;;;;;8.50;2.00;;;18.30;90.50;;;;;;5101795;27;20043;-73
2023/09/28 16:57:52;;;;;;;12.93;2.67;;;18.30;90.80;;;;;;5072991;27;20092;-73
2023/09/28 17:01:44;;;;;;;15.32;2.80;;;18.20;91.10;;;;;;5100567;27;20050;-76
2023/09/28 17:04:34;;;;;;;9.80;2.55;;;18.10;91.20;;;;;;5119481;27;20046;-76
2023/09/28 17:07:34;;;;;;;12.85;2.85;;;18.10;91.50;;;;;;5103814;27;20053;-78